Airfield :
LOGIN :

Register | Disclaimer

   EN    FR    IT 

 










Legend :    VFR   Marginal VFR   IFR   Intensive IFR   Very Intensive IFR
Visi :
Ceiling :
>= 8 km
>= 3000ft
5 to 8 km
1000 to 3000 ft
1500m to 5 km
500 to 1000 ft
800 to 1500m
200 to 500 ft
< 800m
< 200 ft
Symbols :   Thunderstorms  Fog  Heavy snow  Heavy precipitations  Wind > 20 kt
SIGMETs :     Misc.  Thunderstorms  Icing  Turbulence  Mountain Waves  Volcanic Ashes






- Airport Elevation : 433 ft


LFOC - Chateaudun

CURRENT METAR :
  • 110400Z AUTO 32002KT 9999 // NSC 06/05 Q1008

EXPIRED METARs :
  • 110330Z AUTO 01002KT 9999 // NSC 06/05 Q1008
  • 110300Z AUTO 00000KT 9999 // NSC 06/05 Q1008
  • 110230Z AUTO VRB02KT 9999 // NSC 06/05 Q1008
  • 110200Z AUTO VRB02KT 9999 // NSC 07/06 Q1008
  • 110130Z AUTO 12003KT 100V160 9999 // NSC 07/06 Q1008
  • 110100Z AUTO 09003KT 9999 // NSC 07/06 Q1008

TAF TAF LFOC
Valid from the 10 at 15:00 until the 11 at 15:00 UTC


101400Z 1015/1115 20014KT 9999 SCT020 BKN030
TEMPO 1015/1020 4900 -SHRA SCT010 BKN025TCU
PROB30
TEMPO 1015/1019 3000 -TSRA BKN030CB
BECMG 1020/1022 VRB02KT
PROB30 1101/1104 3000 BR
BECMG 1107/1109 28010KT
TEMPO 1110/1115 24015G25KT 4900 -SHRA BKN025TCU



MET'MAP, your aeronautical weather chart ! - Copyright ORBIFLY December 2007 - Disclaimer

ORBIFLY MET'MAP TEAM :

Programming & Development : Alexandra Zaïnal
Concept & original design : Baudouin d'Aumeries
Assistance for programming : Marc-Olivier Méhu
Technical & hardware support : Manuel Goepfert

Contact : metmap@orbifly.com




SOURCES & CREDITS :

   NOAA